createdAt,value
2019-05-01T00:05:04.960Z,34
2019-05-01T00:20:02.908Z,34
2019-05-01T00:35:05.249Z,34
2019-05-01T00:50:03.360Z,34
2019-05-01T01:05:03.853Z,34
2019-05-01T01:20:05.540Z,35
2019-05-01T01:35:04.080Z,35
2019-05-01T01:50:03.856Z,34
2019-05-01T02:05:03.750Z,34
2019-05-01T02:20:04.020Z,34
2019-05-01T02:35:03.854Z,33
2019-05-01T02:50:06.207Z,33
2019-05-01T03:05:04.334Z,33
2019-05-01T03:20:03.323Z,33
2019-05-01T03:35:04.271Z,32
2019-05-01T03:50:03.126Z,32
2019-05-01T04:05:07.230Z,32
2019-05-01T04:20:03.756Z,31
2019-05-01T04:35:06.093Z,31
2019-05-01T04:50:04.271Z,31
2019-05-01T05:05:03.146Z,31
2019-05-01T05:20:03.715Z,31
2019-05-01T05:35:05.617Z,31
2019-05-01T05:50:03.752Z,32
2019-05-01T06:05:04.767Z,32
2019-05-01T06:20:05.203Z,32
2019-05-01T06:35:04.708Z,32
2019-05-01T06:50:07.376Z,32
2019-05-01T07:05:04.308Z,33
2019-05-01T07:20:03.905Z,33
2019-05-01T07:35:06.028Z,33
2019-05-01T07:50:04.147Z,33
2019-05-01T08:05:11.696Z,33
2019-05-01T08:20:04.992Z,32
2019-05-01T08:35:03.882Z,32
2019-05-01T08:50:05.341Z,31
2019-05-01T09:05:27.260Z,31
2019-05-01T09:20:04.953Z,30
2019-05-01T09:35:16.207Z,30
2019-05-01T09:50:04.446Z,30
2019-05-01T10:05:07.877Z,30
2019-05-01T10:20:03.535Z,29
2019-05-01T10:35:05.246Z,29
2019-05-01T10:50:03.697Z,29
2019-05-01T11:05:07.054Z,28
2019-05-01T11:20:03.393Z,28
2019-05-01T11:35:03.936Z,28
2019-05-01T11:50:07.180Z,28
2019-05-01T12:05:05.291Z,28
2019-05-01T12:20:04.898Z,28
2019-05-01T12:35:07.908Z,27
2019-05-01T12:50:11.541Z,27
2019-05-01T13:05:03.707Z,27
2019-05-01T13:20:05.168Z,27
2019-05-01T13:35:03.188Z,27
2019-05-01T13:50:03.909Z,27
2019-05-01T14:05:06.593Z,27
2019-05-01T14:20:04.080Z,27
2019-05-01T14:35:03.632Z,26
2019-05-01T14:50:04.290Z,26
2019-05-01T15:05:05.328Z,26
2019-05-01T15:20:04.034Z,26
2019-05-01T15:35:03.348Z,26
2019-05-01T15:50:03.632Z,26
2019-05-01T16:05:06.419Z,26
2019-05-01T16:20:04.757Z,26
2019-05-01T16:35:05.186Z,26
2019-05-01T16:50:03.856Z,26
2019-05-01T17:05:05.038Z,26
2019-05-01T17:20:07.751Z,26
2019-05-01T17:35:07.981Z,25
2019-05-01T17:50:03.524Z,25
2019-05-01T18:05:04.133Z,25
2019-05-01T18:20:03.532Z,26
2019-05-01T18:35:03.855Z,27
2019-05-01T18:50:05.135Z,27
2019-05-01T19:05:08.569Z,27
2019-05-01T19:20:05.757Z,28
2019-05-01T19:35:04.040Z,28
2019-05-01T19:50:09.428Z,28
2019-05-01T20:05:05.016Z,29
2019-05-01T20:20:03.329Z,29
2019-05-01T20:35:03.617Z,29
2019-05-01T20:50:05.064Z,29
2019-05-01T21:05:03.118Z,29
2019-05-01T21:20:05.383Z,29
2019-05-01T21:35:05.147Z,29
2019-05-01T21:50:03.482Z,29
2019-05-01T22:05:05.063Z,29
2019-05-01T22:20:03.689Z,29
2019-05-01T22:35:04.047Z,29
2019-05-01T22:50:03.580Z,29
2019-05-01T23:05:03.978Z,29
2019-05-01T23:20:05.374Z,29
2019-05-01T23:35:03.078Z,29
2019-05-01T23:50:03.281Z,29
